Time;durP1;ratioP1;P1;durP2;ratioP2;P2;SDS_P1;SDS_P2;PMS_P1;PMS_P2;Temp;Humidity;BMP_temperature;BMP_pressure;BME280_temperature;BME280_humidity;BME280_pressure;Samples;Min_cycle;Max_cycle;Signal;HPM_P1;HPM_P2
2023/06/22 00:02:15;;;;;;;0.10;0.10;;;23.00;99.90;;;;;;5130085;28;20022;-87
2023/06/22 00:04:41;;;;;;;0.52;0.52;;;22.90;99.90;;;;;;5130054;28;20031;-87
2023/06/22 00:07:07;;;;;;;0.28;0.28;;;22.90;99.90;;;;;;5130130;28;20031;-87
2023/06/22 00:09:33;;;;;;;0.20;0.20;;;22.90;99.90;;;;;;5129877;28;20023;-87
2023/06/22 00:11:58;;;;;;;0.30;0.30;;;23.10;99.90;;;;;;5129899;28;20019;-87
2023/06/22 00:14:24;;;;;;;0.30;0.30;;;22.90;99.90;;;;;;5129889;28;20108;-87
2023/06/22 00:16:58;;;;;;;0.20;0.20;;;22.90;99.90;;;;;;5129816;28;20023;-87
2023/06/22 00:19:24;;;;;;;0.00;0.00;;;22.90;99.90;;;;;;5129690;28;20031;-87
2023/06/22 00:21:53;;;;;;;0.20;0.20;;;22.80;99.90;;;;;;5111302;28;20135;-87
2023/06/22 00:24:20;;;;;;;1.35;0.63;;;22.90;99.90;;;;;;5129724;28;20476;-86
2023/06/22 00:26:47;;;;;;;0.20;0.20;;;23.50;99.90;;;;;;5129652;28;20369;-87
2023/06/22 00:29:12;;;;;;;0.20;0.20;;;22.80;99.90;;;;;;5129520;28;20049;-86
2023/06/22 00:31:38;;;;;;;0.00;0.00;;;22.80;99.90;;;;;;5129480;28;20027;-87
2023/06/22 00:34:06;;;;;;;0.20;0.20;;;22.80;99.90;;;;;;5129183;28;20048;-87
2023/06/22 00:36:32;;;;;;;0.10;0.10;;;22.80;99.90;;;;;;5129388;28;20118;-87
2023/06/22 00:38:57;;;;;;;0.17;0.17;;;22.70;99.90;;;;;;5129743;28;20054;-86
2023/06/22 00:41:23;;;;;;;0.10;0.10;;;22.70;99.90;;;;;;5128808;28;20023;-86
2023/06/22 00:43:48;;;;;;;0.10;0.10;;;22.70;99.90;;;;;;5128912;28;20026;-87
2023/06/22 00:46:15;;;;;;;0.13;0.13;;;22.50;99.90;;;;;;5118017;28;20425;-87
2023/06/22 00:48:43;;;;;;;0.50;0.50;;;22.50;99.90;;;;;;5115756;28;20040;-86
2023/06/22 00:51:10;;;;;;;0.00;0.00;;;22.50;99.90;;;;;;5097261;28;20028;-87
2023/06/22 00:53:36;;;;;;;0.22;0.22;;;22.50;99.90;;;;;;5115217;28;20095;-86
2023/06/22 00:56:03;;;;;;;0.35;0.30;;;22.20;99.90;;;;;;5115060;28;20161;-87
2023/06/22 00:58:30;;;;;;;0.82;0.65;;;22.10;99.90;;;;;;5115212;28;20596;-87
2023/06/22 01:00:56;;;;;;;0.40;0.40;;;22.10;99.90;;;;;;5097031;28;20072;-86
2023/06/22 01:03:22;;;;;;;0.57;0.13;;;21.90;99.90;;;;;;5115331;28;20114;-87
2023/06/22 01:05:49;;;;;;;10.88;1.95;;;22.00;99.90;;;;;;5115240;28;20586;-86
2023/06/22 01:08:53;;;;;;;0.75;0.40;;;21.90;99.90;;;;;;5114769;28;20032;-87
2023/06/22 01:11:36;;;;;;;0.10;0.10;;;21.80;99.90;;;;;;5032356;28;20029;-86
2023/06/22 01:14:13;;;;;;;0.20;0.20;;;21.90;99.90;;;;;;5032168;28;20077;-86
2023/06/22 01:16:43;;;;;;;0.03;0.03;;;22.00;99.90;;;;;;5032263;28;20021;-87
2023/06/22 01:19:35;;;;;;;0.10;0.10;;;22.00;99.90;;;;;;5048634;28;20041;-87
2023/06/22 01:22:01;;;;;;;0.08;0.08;;;21.80;99.90;;;;;;5032450;28;20032;-86
2023/06/22 01:24:32;;;;;;;0.52;0.25;;;21.70;99.90;;;;;;5031780;28;20033;-86
2023/06/22 01:27:01;;;;;;;0.00;0.00;;;21.70;99.90;;;;;;5031972;28;20033;-87
2023/06/22 01:29:28;;;;;;;0.20;0.20;;;21.90;99.90;;;;;;5032386;28;20529;-86
2023/06/22 01:31:56;;;;;;;0.30;0.25;;;21.80;99.90;;;;;;5031771;28;20133;-87
2023/06/22 01:34:22;;;;;;;0.20;0.20;;;21.90;99.90;;;;;;5031687;28;20049;-87
2023/06/22 01:36:49;;;;;;;0.45;0.45;;;22.00;99.90;;;;;;5032228;28;20117;-86
2023/06/22 01:39:16;;;;;;;1.00;0.60;;;21.90;99.90;;;;;;5031457;28;20037;-87
2023/06/22 01:41:42;;;;;;;0.17;0.17;;;21.90;99.90;;;;;;5031840;28;20026;-87
2023/06/22 01:44:09;;;;;;;2.53;1.50;;;21.90;99.90;;;;;;5035200;28;20033;-86
2023/06/22 01:46:35;;;;;;;0.20;0.20;;;21.70;99.90;;;;;;5094182;28;20031;-86
2023/06/22 01:49:03;;;;;;;0.20;0.20;;;21.60;99.90;;;;;;5093757;28;20500;-86
2023/06/22 01:51:29;;;;;;;0.20;0.20;;;21.60;99.90;;;;;;5093874;28;20077;-87
2023/06/22 01:53:54;;;;;;;0.63;0.50;;;21.80;99.90;;;;;;5093383;28;20297;-87
2023/06/22 01:56:20;;;;;;;0.03;0.03;;;21.90;99.90;;;;;;5093844;28;20028;-87
2023/06/22 01:58:58;;;;;;;0.35;0.35;;;21.90;99.90;;;;;;5093268;28;20028;-86
2023/06/22 02:01:31;;;;;;;1.13;0.30;;;21.70;99.90;;;;;;5075584;28;20028;-86
2023/06/22 02:04:11;;;;;;;0.20;0.20;;;21.60;99.90;;;;;;5075454;28;20020;-86
2023/06/22 02:06:41;;;;;;;0.52;0.15;;;21.70;99.90;;;;;;5093180;28;20381;-86
2023/06/22 02:09:14;;;;;;;0.28;0.28;;;21.60;99.90;;;;;;5094020;28;20481;-86
2023/06/22 02:11:42;;;;;;;0.28;0.28;;;21.60;99.90;;;;;;5093321;28;20036;-86
2023/06/22 02:14:08;;;;;;;0.28;0.28;;;21.80;99.90;;;;;;5093208;28;20131;-86
2023/06/22 02:16:35;;;;;;;0.10;0.10;;;21.70;99.90;;;;;;5075190;28;20027;-86
2023/06/22 02:19:06;;;;;;;0.30;0.30;;;21.60;99.90;;;;;;5093605;28;20495;-86
2023/06/22 02:21:32;;;;;;;0.10;0.10;;;21.50;99.90;;;;;;5092993;28;20039;-86
2023/06/22 02:23:58;;;;;;;0.22;0.13;;;21.50;99.90;;;;;;5093766;28;20016;-87
2023/06/22 02:26:25;;;;;;;0.20;0.20;;;21.50;99.90;;;;;;5093389;28;20473;-87
2023/06/22 02:28:51;;;;;;;0.47;0.20;;;21.40;99.90;;;;;;5093211;28;20035;-86
2023/06/22 02:31:17;;;;;;;0.35;0.35;;;21.20;99.90;;;;;;5105763;28;20038;-86
2023/06/22 02:33:43;;;;;;;0.65;0.35;;;21.20;99.90;;;;;;5113195;28;20040;-86
2023/06/22 02:36:12;;;;;;;0.43;0.43;;;21.30;99.90;;;;;;5113118;28;20396;-86
2023/06/22 02:38:48;;;;;;;0.20;0.20;;;21.30;99.90;;;;;;5113250;28;20027;-87
2023/06/22 02:41:18;;;;;;;0.35;0.35;;;21.20;99.90;;;;;;5113681;28;20030;-87
2023/06/22 02:43:45;;;;;;;0.52;0.30;;;21.20;99.90;;;;;;5113221;28;20027;-86
2023/06/22 02:46:12;;;;;;;0.10;0.10;;;21.40;99.90;;;;;;5113303;28;20402;-87
2023/06/22 02:48:39;;;;;;;0.57;0.30;;;21.40;99.90;;;;;;5113119;28;20097;-86
2023/06/22 02:51:04;;;;;;;0.10;0.10;;;21.40;99.90;;;;;;5112830;28;20024;-86
2023/06/22 02:53:30;;;;;;;0.10;0.10;;;21.30;99.90;;;;;;5113129;28;20047;-87
2023/06/22 02:55:56;;;;;;;0.25;0.25;;;21.30;99.90;;;;;;5113513;28;20023;-86
2023/06/22 02:58:21;;;;;;;0.20;0.20;;;21.30;99.90;;;;;;5112880;28;20081;-86
2023/06/22 03:00:47;;;;;;;0.35;0.35;;;21.80;99.90;;;;;;5113102;28;20027;-86
2023/06/22 03:03:12;;;;;;;0.30;0.30;;;21.20;99.90;;;;;;5112945;28;20023;-86
2023/06/22 03:05:40;;;;;;;0.50;0.40;;;21.10;99.90;;;;;;5113076;28;20034;-86
2023/06/22 03:08:05;;;;;;;0.10;0.10;;;21.30;99.90;;;;;;5112531;28;20035;-87
2023/06/22 03:10:31;;;;;;;0.10;0.10;;;21.30;99.90;;;;;;5094441;28;20027;-86
2023/06/22 03:12:57;;;;;;;0.45;0.45;;;21.30;99.90;;;;;;5112707;28;20023;-86
2023/06/22 03:15:22;;;;;;;0.17;0.17;;;21.30;99.90;;;;;;5112697;28;20494;-87
2023/06/22 03:17:48;;;;;;;0.20;0.20;;;21.00;99.90;;;;;;5112700;28;20073;-87
2023/06/22 03:20:13;;;;;;;0.38;0.25;;;21.00;99.90;;;;;;5112365;28;20024;-87
2023/06/22 03:22:40;;;;;;;0.40;0.40;;;21.10;99.90;;;;;;5112898;28;20030;-86
2023/06/22 03:25:12;;;;;;;0.10;0.10;;;21.00;99.90;;;;;;5112674;28;20020;-86
2023/06/22 03:27:38;;;;;;;0.10;0.10;;;21.10;99.90;;;;;;5112761;28;20027;-86
2023/06/22 03:30:05;;;;;;;0.20;0.20;;;21.10;99.90;;;;;;5094093;28;20396;-86
2023/06/22 03:32:30;;;;;;;0.22;0.22;;;21.00;99.90;;;;;;5112503;28;20072;-87
2023/06/22 03:34:58;;;;;;;0.20;0.20;;;21.10;99.90;;;;;;5111887;28;20055;-86
2023/06/22 03:37:25;;;;;;;0.32;0.28;;;21.20;99.90;;;;;;5112928;28;20102;-86
2023/06/22 03:39:51;;;;;;;0.13;0.13;;;21.20;99.90;;;;;;5112699;28;20392;-86
2023/06/22 03:42:17;;;;;;;0.85;0.60;;;21.30;99.90;;;;;;5112244;28;20025;-86
2023/06/22 03:44:42;;;;;;;0.05;0.05;;;21.40;99.90;;;;;;5112537;28;20028;-87
2023/06/22 03:47:08;;;;;;;0.45;0.22;;;21.40;99.90;;;;;;5112295;28;20034;-86
2023/06/22 03:49:34;;;;;;;0.30;0.30;;;21.40;99.90;;;;;;5111932;28;20499;-86
2023/06/22 03:52:01;;;;;;;0.40;0.40;;;21.20;99.90;;;;;;5112304;28;20024;-87
2023/06/22 03:54:28;;;;;;;0.20;0.20;;;21.30;99.90;;;;;;5112330;28;20461;-86
2023/06/22 03:56:53;;;;;;;0.22;0.17;;;21.30;99.90;;;;;;5112470;28;20031;-86
2023/06/22 03:59:19;;;;;;;1.55;0.98;;;21.30;99.90;;;;;;5112051;28;20510;-87
2023/06/22 04:01:45;;;;;;;0.50;0.50;;;21.20;99.90;;;;;;5112636;28;20054;-86
2023/06/22 04:04:10;;;;;;;0.22;0.22;;;21.40;99.90;;;;;;5111974;28;20500;-87
2023/06/22 04:06:36;;;;;;;0.38;0.38;;;21.50;99.90;;;;;;5112204;28;20035;-86
2023/06/22 04:09:02;;;;;;;0.80;0.80;;;21.40;99.90;;;;;;5112327;28;20545;-87
2023/06/22 04:11:27;;;;;;;0.75;0.32;;;21.50;99.90;;;;;;5112648;28;20447;-86
2023/06/22 04:13:53;;;;;;;5.15;1.27;;;21.50;99.90;;;;;;5112145;28;20094;-87
2023/06/22 04:16:19;;;;;;;0.20;0.20;;;21.60;99.90;;;;;;5111993;28;20472;-86
2023/06/22 04:18:45;;;;;;;0.73;0.73;;;21.50;99.90;;;;;;5112153;28;20020;-86
2023/06/22 04:21:10;;;;;;;0.20;0.20;;;21.50;99.90;;;;;;5096055;28;20028;-87
2023/06/22 04:23:36;;;;;;;0.32;0.32;;;21.70;99.90;;;;;;5116040;28;20019;-86
2023/06/22 04:26:01;;;;;;;0.22;0.22;;;21.70;99.90;;;;;;5115891;28;20027;-86
2023/06/22 04:28:27;;;;;;;0.10;0.10;;;21.70;99.90;;;;;;5116046;28;20028;-86
2023/06/22 04:30:57;;;;;;;0.40;0.30;;;21.70;99.90;;;;;;5097181;28;20023;-86
2023/06/22 04:33:23;;;;;;;0.50;0.25;;;21.80;99.90;;;;;;5115149;28;20055;-86
2023/06/22 04:35:49;;;;;;;0.32;0.32;;;21.70;99.90;;;;;;5116227;28;20365;-86
2023/06/22 04:38:14;;;;;;;0.38;0.38;;;21.70;99.90;;;;;;5115654;28;20383;-86
2023/06/22 04:40:40;;;;;;;0.38;0.35;;;21.90;99.90;;;;;;5115679;28;20077;-86
2023/06/22 04:43:06;;;;;;;1.75;1.00;;;21.90;99.90;;;;;;5115564;28;20118;-86
2023/06/22 04:45:32;;;;;;;0.15;0.15;;;21.80;99.90;;;;;;5115407;28;20027;-86
2023/06/22 04:47:58;;;;;;;0.52;0.22;;;21.70;99.90;;;;;;5115602;28;20069;-87
2023/06/22 04:50:24;;;;;;;0.20;0.20;;;21.90;99.90;;;;;;5115337;28;20442;-86
2023/06/22 04:52:51;;;;;;;0.32;0.32;;;22.10;99.90;;;;;;5097454;28;20038;-87
2023/06/22 04:55:18;;;;;;;0.22;0.22;;;21.90;99.90;;;;;;5115141;28;20063;-87
2023/06/22 04:57:50;;;;;;;0.73;0.57;;;21.90;99.90;;;;;;5115115;28;20028;-86
2023/06/22 05:00:17;;;;;;;0.30;0.30;;;21.80;99.90;;;;;;5115182;28;20032;-86
2023/06/22 05:02:45;;;;;;;0.10;0.10;;;21.80;99.90;;;;;;5115506;28;20049;-87
2023/06/22 05:05:13;;;;;;;0.20;0.20;;;21.90;99.90;;;;;;5096933;28;20529;-87
2023/06/22 05:07:42;;;;;;;2.05;1.35;;;22.00;99.90;;;;;;5115170;28;20106;-87
2023/06/22 05:10:10;;;;;;;26.95;1.95;;;21.80;99.90;;;;;;5115377;28;20106;-86
2023/06/22 05:12:36;;;;;;;0.98;0.57;;;21.60;99.90;;;;;;5114992;28;20027;-87
2023/06/22 05:15:01;;;;;;;0.77;0.63;;;21.60;99.90;;;;;;5114638;28;20039;-87
2023/06/22 05:17:27;;;;;;;0.43;0.43;;;21.60;99.90;;;;;;5115069;28;20164;-86
2023/06/22 05:19:53;;;;;;;0.77;0.60;;;21.60;99.90;;;;;;5115274;28;20054;-86
2023/06/22 05:22:19;;;;;;;0.20;0.20;;;21.60;99.90;;;;;;5114855;28;20124;-86
2023/06/22 05:24:45;;;;;;;0.73;0.65;;;21.50;99.90;;;;;;5114930;28;20028;-87
2023/06/22 05:27:11;;;;;;;0.43;0.30;;;21.50;99.90;;;;;;5115136;28;20065;-86
2023/06/22 05:29:37;;;;;;;0.95;0.95;;;21.50;99.90;;;;;;5114422;28;20031;-87
2023/06/22 05:32:03;;;;;;;0.60;0.60;;;21.40;99.90;;;;;;5096096;28;20365;-87
2023/06/22 05:34:29;;;;;;;0.77;0.73;;;21.50;99.90;;;;;;5114334;28;20079;-86
2023/06/22 05:36:54;;;;;;;0.10;0.10;;;21.60;99.90;;;;;;5114698;28;20028;-86
2023/06/22 05:39:20;;;;;;;0.30;0.30;;;21.70;99.90;;;;;;5114435;28;20104;-87
2023/06/22 05:41:46;;;;;;;0.65;0.65;;;21.90;99.90;;;;;;5114813;28;20023;-86
2023/06/22 05:44:12;;;;;;;1.25;0.60;;;21.90;99.90;;;;;;5114072;28;20038;-86
2023/06/22 05:46:47;;;;;;;0.20;0.20;;;21.90;99.90;;;;;;5114283;28;20483;-86
2023/06/22 05:49:14;;;;;;;0.70;0.20;;;21.70;99.90;;;;;;5114219;28;20024;-87
2023/06/22 05:51:41;;;;;;;0.30;0.30;;;21.80;99.90;;;;;;5096522;28;20056;-87
2023/06/22 05:54:07;;;;;;;0.88;0.82;;;21.80;99.90;;;;;;5095872;28;20047;-87
2023/06/22 05:56:33;;;;;;;0.32;0.32;;;21.90;99.90;;;;;;5113991;28;20023;-87
2023/06/22 05:58:59;;;;;;;0.68;0.68;;;22.00;99.90;;;;;;5095803;28;20035;-87
2023/06/22 06:01:25;;;;;;;1.30;1.00;;;21.90;99.90;;;;;;5114088;28;20027;-87
2023/06/22 06:03:52;;;;;;;0.30;0.30;;;21.90;99.90;;;;;;5113906;28;20060;-86
2023/06/22 06:06:20;;;;;;;0.32;0.32;;;22.00;99.90;;;;;;5113938;28;20034;-87
2023/06/22 06:08:46;;;;;;;0.82;0.80;;;22.20;99.90;;;;;;5113875;28;20145;-87
2023/06/22 06:11:12;;;;;;;0.40;0.40;;;22.30;99.90;;;;;;5114112;28;20535;-86
2023/06/22 06:13:38;;;;;;;0.47;0.30;;;22.30;99.90;;;;;;5113412;28;20142;-86
2023/06/22 06:16:03;;;;;;;0.00;0.00;;;22.30;99.90;;;;;;5113468;28;20031;-87
2023/06/22 06:18:29;;;;;;;0.47;0.47;;;22.50;99.90;;;;;;5114019;28;20023;-86
2023/06/22 06:20:55;;;;;;;3.05;0.70;;;22.50;99.90;;;;;;5113682;28;20027;-87
2023/06/22 06:23:20;;;;;;;1.55;0.52;;;22.60;99.90;;;;;;5114464;28;20027;-89
2023/06/22 06:25:46;;;;;;;0.47;0.35;;;22.30;99.90;;;;;;5096612;28;20118;-90
2023/06/22 06:28:11;;;;;;;0.55;0.30;;;22.40;99.90;;;;;;5094397;28;20032;-87
2023/06/22 06:30:37;;;;;;;0.20;0.20;;;22.10;99.90;;;;;;5113666;28;20484;-87
2023/06/22 06:33:08;;;;;;;0.47;0.47;;;21.90;99.90;;;;;;5113387;28;20035;-87
2023/06/22 06:35:34;;;;;;;0.70;0.70;;;22.10;99.90;;;;;;5113293;28;20043;-87
2023/06/22 06:38:00;;;;;;;0.17;0.17;;;22.30;99.90;;;;;;5113390;28;20051;-86
2023/06/22 06:40:25;;;;;;;0.60;0.60;;;22.30;99.90;;;;;;5113281;28;20066;-87
2023/06/22 06:42:51;;;;;;;3.70;1.15;;;22.30;99.90;;;;;;5112256;28;20024;-86
2023/06/22 06:45:19;;;;;;;0.50;0.50;;;22.30;99.90;;;;;;5094865;28;20073;-87
2023/06/22 06:47:46;;;;;;;0.73;0.73;;;22.30;99.90;;;;;;5113863;28;20035;-86
2023/06/22 06:50:12;;;;;;;1.45;1.05;;;22.20;99.90;;;;;;5113234;28;20034;-86
2023/06/22 06:52:38;;;;;;;0.55;0.43;;;21.80;99.90;;;;;;5113006;28;20032;-87
2023/06/22 06:55:07;;;;;;;0.45;0.35;;;22.20;99.90;;;;;;5112996;28;20043;-87
2023/06/22 06:57:33;;;;;;;0.50;0.47;;;22.50;99.90;;;;;;5111568;28;20110;-86
2023/06/22 06:59:59;;;;;;;0.38;0.38;;;22.70;99.90;;;;;;5113268;28;20488;-87
2023/06/22 07:02:27;;;;;;;1.85;0.73;;;22.50;99.90;;;;;;5094713;28;20023;-87
2023/06/22 07:04:55;;;;;;;0.98;0.90;;;22.80;99.90;;;;;;5113659;28;20035;-87
2023/06/22 07:07:21;;;;;;;0.40;0.35;;;23.10;99.90;;;;;;5112959;28;20387;-87
2023/06/22 07:09:46;;;;;;;0.50;0.45;;;23.10;99.90;;;;;;5112784;28;20032;-87
2023/06/22 07:12:12;;;;;;;0.73;0.65;;;23.60;99.90;;;;;;5112870;28;20081;-87
2023/06/22 07:14:38;;;;;;;0.95;0.40;;;24.10;99.90;;;;;;5112761;28;20063;-87
2023/06/22 07:17:06;;;;;;;0.88;0.75;;;24.50;99.90;;;;;;5112681;28;20024;-87
2023/06/22 07:19:33;;;;;;;0.10;0.10;;;24.70;99.90;;;;;;5112744;28;20506;-86
2023/06/22 07:21:58;;;;;;;0.20;0.20;;;24.80;99.90;;;;;;5095347;28;20028;-87
2023/06/22 07:24:24;;;;;;;0.45;0.45;;;25.00;99.90;;;;;;5113479;28;20421;-87
2023/06/22 07:26:51;;;;;;;1.52;1.08;;;25.10;99.90;;;;;;5112810;28;20023;-87
2023/06/22 07:29:23;;;;;;;0.95;0.95;;;24.70;99.90;;;;;;5112639;28;20031;-86
2023/06/22 07:31:51;;;;;;;0.57;0.57;;;24.10;99.90;;;;;;5112529;28;20023;-87
2023/06/22 07:34:17;;;;;;;0.30;0.30;;;23.90;99.90;;;;;;5112731;28;20078;-87
2023/06/22 07:36:43;;;;;;;0.40;0.40;;;23.80;99.90;;;;;;5112742;28;20043;-87
2023/06/22 07:39:09;;;;;;;0.20;0.20;;;23.80;99.90;;;;;;5112429;28;20059;-87
2023/06/22 07:41:34;;;;;;;1.08;0.98;;;23.90;99.90;;;;;;5112486;28;20439;-87
2023/06/22 07:44:00;;;;;;;0.93;0.70;;;24.00;99.90;;;;;;5112359;28;20023;-87
2023/06/22 07:46:26;;;;;;;0.47;0.47;;;24.20;99.90;;;;;;5112591;28;20491;-87
2023/06/22 07:48:51;;;;;;;1.15;0.60;;;24.40;99.90;;;;;;5111138;28;20044;-87
2023/06/22 07:51:17;;;;;;;0.50;0.50;;;24.30;99.90;;;;;;5112446;28;20268;-87
2023/06/22 07:53:43;;;;;;;0.52;0.30;;;24.50;99.90;;;;;;5112143;28;20023;-87
2023/06/22 07:56:12;;;;;;;1.45;0.73;;;24.60;99.90;;;;;;5114756;28;20035;-87
2023/06/22 07:58:38;;;;;;;0.90;0.75;;;24.50;99.90;;;;;;5116331;28;20023;-87
2023/06/22 08:01:04;;;;;;;0.30;0.30;;;24.20;99.90;;;;;;5116678;28;20023;-87
2023/06/22 08:03:30;;;;;;;0.85;0.85;;;24.20;99.90;;;;;;5116512;28;20448;-87
2023/06/22 08:05:55;;;;;;;0.63;0.63;;;24.40;99.90;;;;;;5116797;28;20023;-87
2023/06/22 08:08:21;;;;;;;0.57;0.57;;;24.50;99.90;;;;;;5116560;28;20020;-87
2023/06/22 08:10:47;;;;;;;0.60;0.60;;;24.80;99.90;;;;;;5115880;28;20049;-87
2023/06/22 08:13:12;;;;;;;3.10;0.98;;;24.70;99.90;;;;;;5116625;28;20039;-87
2023/06/22 08:15:38;;;;;;;0.20;0.20;;;24.90;99.90;;;;;;5116263;28;20024;-87
2023/06/22 08:18:05;;;;;;;0.88;0.82;;;25.10;99.90;;;;;;5115008;28;20028;-87
2023/06/22 08:20:31;;;;;;;0.30;0.30;;;25.30;99.90;;;;;;5097877;28;20426;-87
2023/06/22 08:23:00;;;;;;;0.52;0.52;;;25.40;99.90;;;;;;5115859;28;20031;-87
2023/06/22 08:25:25;;;;;;;0.75;0.47;;;25.40;99.90;;;;;;5115729;28;20054;-87
2023/06/22 08:27:51;;;;;;;0.47;0.47;;;25.10;99.90;;;;;;5115971;28;20080;-87
2023/06/22 08:30:18;;;;;;;0.25;0.25;;;25.40;99.90;;;;;;5116024;28;20548;-87
2023/06/22 08:32:44;;;;;;;0.52;0.45;;;25.70;99.90;;;;;;5115801;28;20031;-87
2023/06/22 08:35:10;;;;;;;2.63;0.80;;;25.70;99.90;;;;;;5115438;28;20384;-87
2023/06/22 08:37:36;;;;;;;0.40;0.40;;;26.00;99.90;;;;;;5116223;28;20038;-87
2023/06/22 08:40:08;;;;;;;0.73;0.68;;;25.90;99.90;;;;;;5115359;28;20112;-87
2023/06/22 08:42:34;;;;;;;0.75;0.40;;;25.90;99.90;;;;;;5115586;28;20077;-87
2023/06/22 08:45:00;;;;;;;0.60;0.60;;;26.20;99.90;;;;;;5115768;28;20027;-87
2023/06/22 08:47:28;;;;;;;0.30;0.30;;;26.50;99.90;;;;;;5115961;28;20020;-87
2023/06/22 08:49:54;;;;;;;0.40;0.40;;;26.80;99.90;;;;;;5115504;28;20062;-87
2023/06/22 08:52:20;;;;;;;0.75;0.75;;;27.10;99.90;;;;;;5115214;28;20047;-87
2023/06/22 08:54:46;;;;;;;0.15;0.15;;;27.20;99.90;;;;;;5097557;28;20111;-87
2023/06/22 08:57:12;;;;;;;0.60;0.60;;;27.40;99.90;;;;;;5114987;28;20019;-87
2023/06/22 08:59:37;;;;;;;0.93;0.43;;;27.40;99.90;;;;;;5115761;28;20072;-87
2023/06/22 09:02:03;;;;;;;0.88;0.88;;;27.70;99.90;;;;;;5097191;28;20105;-87
2023/06/22 09:04:29;;;;;;;0.15;0.15;;;27.60;99.90;;;;;;5115360;28;20503;-87
2023/06/22 09:06:54;;;;;;;0.22;0.22;;;27.80;99.90;;;;;;5096642;28;20153;-87
2023/06/22 09:09:22;;;;;;;0.08;0.08;;;27.80;99.90;;;;;;5115054;28;20047;-87
2023/06/22 09:11:47;;;;;;;1.50;0.75;;;27.60;99.90;;;;;;5115271;28;20016;-87
2023/06/22 09:14:13;;;;;;;0.60;0.60;;;27.20;99.90;;;;;;5115445;28;20092;-88
2023/06/22 09:16:38;;;;;;;0.40;0.40;;;27.00;99.90;;;;;;5113795;28;20028;-87
2023/06/22 09:19:04;;;;;;;0.90;0.75;;;27.00;99.90;;;;;;5096672;28;20089;-87
2023/06/22 09:21:30;;;;;;;0.30;0.30;;;27.10;99.90;;;;;;5114622;28;20045;-87
2023/06/22 09:23:56;;;;;;;0.75;0.50;;;27.30;99.90;;;;;;5114875;28;20483;-87
2023/06/22 09:26:23;;;;;;;0.40;0.40;;;27.40;99.90;;;;;;5114908;28;20089;-87
2023/06/22 09:28:49;;;;;;;0.70;0.70;;;27.60;99.90;;;;;;5114745;28;20081;-87
2023/06/22 09:31:16;;;;;;;3.63;0.65;;;27.70;99.90;;;;;;5096226;28;20032;-87
2023/06/22 09:33:42;;;;;;;0.30;0.20;;;27.60;99.90;;;;;;5114543;28;20051;-87
2023/06/22 09:36:07;;;;;;;0.65;0.28;;;27.30;99.90;;;;;;5114286;28;20114;-87
2023/06/22 09:38:36;;;;;;;1.98;0.68;;;27.10;99.90;;;;;;5115020;28;20031;-87
2023/06/22 09:41:02;;;;;;;5.75;1.25;;;27.00;99.90;;;;;;5114538;28;20035;-87
2023/06/22 09:43:28;;;;;;;0.30;0.30;;;27.00;99.90;;;;;;5096069;28;20016;-87
2023/06/22 09:45:54;;;;;;;0.57;0.28;;;27.00;99.90;;;;;;5114396;28;20470;-87
2023/06/22 09:48:19;;;;;;;0.52;0.40;;;27.10;99.90;;;;;;5114218;28;20024;-87
2023/06/22 09:50:45;;;;;;;0.38;0.25;;;27.30;99.90;;;;;;5113987;28;20028;-87
2023/06/22 09:53:11;;;;;;;0.40;0.38;;;27.40;99.90;;;;;;5096247;28;20035;-88
2023/06/22 09:55:36;;;;;;;0.45;0.45;;;27.60;99.90;;;;;;5114379;28;20111;-87
2023/06/22 09:58:02;;;;;;;0.32;0.20;;;27.70;99.90;;;;;;5114314;28;20024;-87
2023/06/22 10:00:27;;;;;;;0.82;0.82;;;27.70;99.90;;;;;;5114340;28;20015;-87
2023/06/22 10:02:53;;;;;;;0.52;0.52;;;27.50;99.90;;;;;;5114026;28;20094;-87
2023/06/22 10:05:19;;;;;;;0.10;0.10;;;27.20;99.90;;;;;;5113868;28;20539;-87
2023/06/22 10:07:45;;;;;;;0.63;0.63;;;27.10;99.90;;;;;;5114481;28;20102;-87
2023/06/22 10:10:11;;;;;;;0.40;0.20;;;27.00;99.90;;;;;;5113994;28;20016;-87
2023/06/22 10:12:42;;;;;;;0.22;0.22;;;27.30;99.90;;;;;;5113879;28;20502;-87
2023/06/22 10:15:08;;;;;;;0.35;0.35;;;27.50;99.90;;;;;;5113836;28;20052;-88
2023/06/22 10:17:33;;;;;;;0.43;0.43;;;27.70;99.90;;;;;;5113093;28;20051;-87
2023/06/22 10:20:00;;;;;;;2.97;0.70;;;27.60;99.90;;;;;;5113267;28;20061;-87
2023/06/22 10:22:26;;;;;;;1.48;0.80;;;27.40;99.90;;;;;;5114413;28;20023;-87
2023/06/22 10:24:51;;;;;;;0.30;0.30;;;27.10;99.90;;;;;;5113682;28;20034;-87
2023/06/22 10:27:17;;;;;;;0.20;0.20;;;27.10;99.90;;;;;;5114043;28;20027;-87
2023/06/22 10:29:43;;;;;;;0.20;0.20;;;27.10;99.90;;;;;;5113747;28;20070;-87
2023/06/22 10:32:09;;;;;;;0.17;0.17;;;27.20;99.90;;;;;;5113366;28;20454;-87
2023/06/22 10:34:35;;;;;;;0.20;0.20;;;27.50;99.90;;;;;;5113293;28;20078;-87
2023/06/22 10:37:00;;;;;;;0.90;0.38;;;27.90;99.90;;;;;;5113605;28;20015;-88
2023/06/22 10:39:26;;;;;;;0.20;0.20;;;28.10;99.90;;;;;;5113410;28;20015;-87
2023/06/22 10:41:51;;;;;;;2.55;0.20;;;28.40;99.90;;;;;;5113235;28;20059;-88
2023/06/22 10:44:17;;;;;;;0.15;0.15;;;28.40;99.90;;;;;;5113466;28;20027;-88
2023/06/22 10:46:43;;;;;;;0.38;0.38;;;28.20;99.90;;;;;;5113202;28;20020;-88
2023/06/22 10:49:08;;;;;;;2.42;1.27;;;28.10;99.90;;;;;;5112843;28;20035;-87
2023/06/22 10:51:34;;;;;;;0.95;0.70;;;28.20;99.90;;;;;;5113233;28;20106;-87
2023/06/22 10:54:00;;;;;;;0.20;0.15;;;28.10;99.90;;;;;;5113133;28;20016;-87
2023/06/22 10:56:26;;;;;;;0.50;0.50;;;28.20;99.90;;;;;;5113643;28;20070;-87
2023/06/22 10:58:51;;;;;;;0.50;0.50;;;28.40;99.90;;;;;;5113252;28;20053;-87
2023/06/22 11:01:17;;;;;;;0.20;0.20;;;28.40;99.90;;;;;;5112993;28;20103;-87
2023/06/22 11:03:42;;;;;;;1.30;0.90;;;28.30;99.90;;;;;;5112794;28;20501;-87
2023/06/22 11:06:08;;;;;;;0.20;0.20;;;28.20;99.90;;;;;;5113185;28;20027;-87
2023/06/22 11:08:34;;;;;;;0.32;0.30;;;28.50;99.90;;;;;;5113276;28;20027;-88
2023/06/22 11:10:59;;;;;;;0.90;0.70;;;28.30;99.90;;;;;;5113118;28;20027;-88
2023/06/22 11:13:25;;;;;;;0.65;0.65;;;28.00;99.90;;;;;;5112729;28;20049;-87
2023/06/22 11:15:50;;;;;;;1.80;0.65;;;28.30;99.90;;;;;;5113186;28;20039;-87
2023/06/22 11:18:16;;;;;;;0.73;0.73;;;27.90;99.90;;;;;;5112477;28;20024;-87
2023/06/22 11:20:42;;;;;;;1.55;1.08;;;27.80;99.90;;;;;;5112750;28;20054;-88
2023/06/22 11:23:07;;;;;;;0.52;0.30;;;27.90;99.90;;;;;;5112829;28;20084;-87
2023/06/22 11:25:38;;;;;;;0.85;0.85;;;27.90;99.90;;;;;;5112651;28;20030;-87
2023/06/22 11:28:04;;;;;;;1.08;0.73;;;28.30;99.90;;;;;;5094404;28;20437;-87
2023/06/22 11:30:30;;;;;;;1.58;0.32;;;28.60;99.90;;;;;;5112378;28;20028;-87
2023/06/22 11:32:58;;;;;;;1.70;1.42;;;29.00;99.90;;;;;;5112458;28;20038;-86
2023/06/22 11:35:24;;;;;;;3.10;1.20;;;28.90;99.90;;;;;;5112534;28;20031;-87
2023/06/22 11:37:49;;;;;;;0.50;0.43;;;28.80;99.90;;;;;;5112407;28;20083;-88
2023/06/22 11:40:15;;;;;;;0.40;0.40;;;28.70;99.90;;;;;;5112829;28;20015;-87
2023/06/22 11:42:40;;;;;;;4.38;1.30;;;28.60;99.90;;;;;;5112440;28;20031;-87
2023/06/22 11:45:07;;;;;;;0.32;0.20;;;28.50;99.90;;;;;;5112556;28;20632;-87
2023/06/22 11:47:32;;;;;;;5.47;0.65;;;28.30;99.90;;;;;;5112128;28;20035;-87
2023/06/22 11:49:58;;;;;;;0.73;0.73;;;28.80;99.90;;;;;;5112495;28;20032;-87
2023/06/22 11:52:23;;;;;;;2.92;1.13;;;28.50;99.90;;;;;;5112994;28;20070;-87
2023/06/22 11:54:49;;;;;;;3.65;1.50;;;28.40;99.90;;;;;;5112468;28;20101;-87
2023/06/22 11:57:14;;;;;;;0.55;0.55;;;28.20;99.90;;;;;;5112412;28;20024;-87
2023/06/22 11:59:40;;;;;;;0.85;0.73;;;27.80;99.90;;;;;;5112235;28;20035;-87
2023/06/22 12:02:07;;;;;;;0.88;0.85;;;27.20;99.90;;;;;;5112422;28;20115;-87
2023/06/22 12:04:33;;;;;;;1.45;0.55;;;27.20;99.90;;;;;;5112321;28;20023;-87
2023/06/22 12:06:59;;;;;;;0.68;0.57;;;27.10;99.90;;;;;;5112449;28;20027;-87
2023/06/22 12:09:24;;;;;;;0.38;0.38;;;27.20;99.90;;;;;;5112629;28;20097;-87
2023/06/22 12:11:50;;;;;;;1.77;0.63;;;26.70;99.90;;;;;;5112220;28;20495;-87
2023/06/22 12:14:15;;;;;;;0.30;0.30;;;27.00;99.90;;;;;;5112098;28;20487;-87
2023/06/22 12:16:42;;;;;;;0.80;0.80;;;27.00;99.90;;;;;;5111823;28;20024;-86
2023/06/22 12:19:08;;;;;;;0.40;0.40;;;26.90;99.90;;;;;;5112601;28;20055;-87
2023/06/22 12:21:33;;;;;;;0.63;0.63;;;26.40;99.90;;;;;;5094072;28;20067;-87
2023/06/22 12:23:59;;;;;;;0.40;0.40;;;26.50;99.90;;;;;;5112022;28;20028;-87
2023/06/22 12:26:24;;;;;;;0.40;0.40;;;26.60;99.90;;;;;;5112722;28;20486;-87
2023/06/22 12:28:50;;;;;;;1.92;0.52;;;26.30;99.90;;;;;;5111928;28;20023;-86
2023/06/22 12:31:16;;;;;;;0.50;0.20;;;26.90;99.90;;;;;;5111569;28;20098;-86
2023/06/22 12:33:41;;;;;;;0.20;0.20;;;27.20;99.90;;;;;;5112325;28;20114;-86
2023/06/22 12:36:07;;;;;;;0.10;0.10;;;27.60;99.90;;;;;;5112439;28;20153;-87
2023/06/22 12:38:33;;;;;;;0.55;0.47;;;27.30;99.90;;;;;;5112050;28;20482;-86
2023/06/22 12:40:58;;;;;;;0.20;0.20;;;26.90;99.90;;;;;;5112308;28;20028;-87
2023/06/22 12:43:24;;;;;;;1.65;0.90;;;26.60;99.90;;;;;;5115403;28;20053;-86
2023/06/22 12:45:50;;;;;;;4.28;0.52;;;26.30;99.90;;;;;;5097076;28;20114;-87